createdAt,value
2023-03-23T15:59:11.640Z,96213.91
2023-03-23T16:01:41.019Z,96208.88
2023-03-23T16:04:16.715Z,96216.66
2023-03-23T16:06:43.370Z,96215.72
2023-03-23T16:09:15.838Z,96217.13
2023-03-23T16:11:42.821Z,96222.38
2023-03-23T16:14:09.499Z,96226.75
2023-03-23T16:16:43.403Z,96221.84
2023-03-23T16:19:13.134Z,96225.81
2023-03-23T16:21:40.216Z,96226.91
2023-03-23T16:24:08.305Z,96229.91
2023-03-23T16:26:35.671Z,96225.03
2023-03-23T16:29:13.955Z,96233.91
2023-03-23T16:31:43.680Z,96232.28
2023-03-23T16:34:10.148Z,96237.56
2023-03-23T16:36:36.742Z,96230.38
2023-03-23T16:39:03.461Z,96237.31
2023-03-23T16:41:30.621Z,96231.16
2023-03-23T16:43:57.146Z,96240.03
2023-03-23T16:46:23.587Z,96249.38
2023-03-23T16:48:50.028Z,96247.00
2023-03-23T16:51:16.505Z,96250.34
2023-03-23T16:53:43.000Z,96245.41
2023-03-23T16:56:09.550Z,96248.78
2023-03-23T16:58:36.160Z,96247.81
2023-03-23T17:01:02.988Z,96252.28
2023-03-23T17:03:29.658Z,96243.16
2023-03-23T17:05:56.295Z,96248.75
2023-03-23T17:08:22.867Z,96251.91
2023-03-23T17:10:49.512Z,96243.75
2023-03-23T17:13:17.408Z,96251.41
2023-03-23T17:15:46.715Z,96249.03
2023-03-23T17:18:14.766Z,96258.59
2023-03-23T17:20:41.235Z,96260.34
2023-03-23T17:23:07.705Z,96249.41
2023-03-23T17:25:34.368Z,96258.31
2023-03-23T17:28:06.865Z,96254.03
2023-03-23T17:30:34.556Z,96254.03
2023-03-23T17:33:01.065Z,96245.84
2023-03-23T17:35:27.595Z,96246.59
2023-03-23T17:37:54.048Z,96246.50
2023-03-23T17:40:20.712Z,96247.09
2023-03-23T17:42:47.658Z,96244.84
2023-03-23T17:45:14.091Z,96244.69
2023-03-23T17:47:41.041Z,96248.19
2023-03-23T17:50:11.559Z,96245.69
2023-03-23T17:52:39.145Z,96241.75
2023-03-23T17:55:06.468Z,96244.19
2023-03-23T17:57:33.060Z,96245.00
2023-03-23T17:59:59.474Z,96245.06
2023-03-23T18:02:26.078Z,96233.94
2023-03-23T18:04:52.545Z,96227.69
2023-03-23T18:07:23.355Z,96228.31
2023-03-23T18:09:50.580Z,96225.28
2023-03-23T18:12:17.761Z,96239.16
2023-03-23T18:14:44.512Z,96236.47
2023-03-23T18:17:11.043Z,96236.47
2023-03-23T18:19:37.487Z,96232.06
2023-03-23T18:22:03.974Z,96230.13
2023-03-23T18:24:30.394Z,96226.22
2023-03-23T18:26:57.067Z,96222.16
2023-03-23T18:29:23.600Z,96227.22
2023-03-23T18:31:50.277Z,96223.34
2023-03-23T18:34:16.882Z,96224.75
2023-03-23T18:36:43.339Z,96217.66
2023-03-23T18:39:11.973Z,96219.09
2023-03-23T18:41:38.777Z,96224.38
2023-03-23T18:44:06.181Z,96222.19
2023-03-23T18:46:33.086Z,96223.00
2023-03-23T18:48:59.615Z,96218.16
2023-03-23T18:51:26.235Z,96225.13
2023-03-23T18:53:52.754Z,96211.38
2023-03-23T18:56:19.362Z,96228.19
2023-03-23T18:58:46.345Z,96230.41
2023-03-23T19:01:16.057Z,96226.41
2023-03-23T19:03:43.679Z,96223.00
2023-03-23T19:06:16.334Z,96230.09
2023-03-23T19:08:43.318Z,96226.47
2023-03-23T19:11:12.177Z,96231.16
2023-03-23T19:13:40.309Z,96231.34
2023-03-23T19:16:11.345Z,96230.53
2023-03-23T19:18:37.877Z,96233.84
2023-03-23T19:23:34.616Z,96231.88
2023-03-23T19:26:01.071Z,96238.13
2023-03-23T19:30:58.450Z,96233.09
2023-03-23T19:33:25.567Z,96235.28
2023-03-23T19:36:05.663Z,96235.53
2023-03-23T19:38:35.745Z,96228.59
2023-03-23T19:41:04.065Z,96229.44
2023-03-23T19:43:32.119Z,96227.00
2023-03-23T19:45:58.907Z,96230.66
2023-03-23T19:48:25.603Z,96229.63
2023-03-23T19:50:56.287Z,96229.03
2023-03-23T19:53:24.664Z,96225.78
2023-03-23T19:55:51.669Z,96231.06
2023-03-23T19:58:18.945Z,96230.22
2023-03-23T20:00:45.938Z,96226.38
2023-03-23T20:03:13.044Z,96220.28
2023-03-23T20:05:40.841Z,96222.31
2023-03-23T20:08:09.080Z,96215.03
2023-03-23T20:10:36.090Z,96214.81
2023-03-23T20:13:04.291Z,96212.16
2023-03-23T20:15:32.059Z,96221.03
2023-03-23T20:17:59.631Z,96218.38
2023-03-23T20:20:27.003Z,96225.28
2023-03-23T20:22:55.891Z,96220.75
2023-03-23T20:25:24.548Z,96227.00
2023-03-23T20:27:51.200Z,96222.16
2023-03-23T20:30:18.820Z,96218.09
2023-03-23T20:32:46.428Z,96220.97
2023-03-23T20:35:14.673Z,96217.13
2023-03-23T20:37:41.385Z,96220.91
2023-03-23T20:40:14.749Z,96221.88
2023-03-23T20:42:43.706Z,96211.34
2023-03-23T20:45:12.443Z,96216.00
2023-03-23T20:47:39.754Z,96226.66
2023-03-23T20:50:07.514Z,96223.03
2023-03-23T20:52:35.043Z,96225.22
2023-03-23T20:55:01.622Z,96230.94
2023-03-23T20:57:28.723Z,96234.13
2023-03-23T20:59:55.796Z,96223.22
2023-03-23T21:02:26.078Z,96234.44
2023-03-23T21:04:52.917Z,96234.25
2023-03-23T21:07:23.045Z,96233.66
2023-03-23T21:09:49.702Z,96230.84
2023-03-23T21:12:16.471Z,96228.22
2023-03-23T21:14:44.912Z,96226.00
2023-03-23T21:17:11.916Z,96224.56
2023-03-23T21:19:38.648Z,96223.56
2023-03-23T21:22:05.247Z,96225.34
2023-03-23T21:24:32.033Z,96221.53
2023-03-23T21:27:01.068Z,96220.09
2023-03-23T21:29:28.464Z,96219.28
2023-03-23T21:32:07.583Z,96219.44
2023-03-23T21:34:35.963Z,96217.41
2023-03-23T21:37:02.507Z,96215.41
2023-03-23T21:39:29.057Z,96215.09
2023-03-23T21:41:55.611Z,96205.81
2023-03-23T21:44:22.138Z,96209.22
2023-03-23T21:46:48.740Z,96204.94
2023-03-23T21:49:15.273Z,96204.88
2023-03-23T21:51:43.299Z,96204.59
2023-03-23T21:54:11.609Z,96204.97
2023-03-23T21:56:38.635Z,96205.75
2023-03-23T21:59:07.440Z,96206.97
2023-03-23T22:01:36.751Z,96204.78
2023-03-23T22:04:04.589Z,96203.31
2023-03-23T22:06:34.210Z,96199.69
2023-03-23T22:09:02.346Z,96196.44
2023-03-23T22:11:31.524Z,96192.44
2023-03-23T22:13:58.889Z,96203.59
2023-03-23T22:16:26.138Z,96193.19
2023-03-23T22:18:54.046Z,96194.66
2023-03-23T22:21:26.021Z,96195.72
2023-03-23T22:23:54.521Z,96193.75
2023-03-23T22:26:21.205Z,96194.75
2023-03-23T22:28:49.523Z,96192.97
2023-03-23T22:31:22.140Z,96195.19
2023-03-23T22:33:50.338Z,96188.72
2023-03-23T22:36:18.342Z,96181.66
2023-03-23T22:38:46.997Z,96181.09
2023-03-23T22:41:21.125Z,96171.16
2023-03-23T22:43:48.638Z,96177.66
2023-03-23T22:46:15.864Z,96180.25
2023-03-23T22:48:42.719Z,96176.03
2023-03-23T22:51:09.819Z,96170.53
2023-03-23T22:53:36.478Z,96170.13
2023-03-23T22:56:03.065Z,96161.25
2023-03-23T22:58:30.043Z,96161.28
2023-03-23T23:01:06.520Z,96155.81
2023-03-23T23:03:34.371Z,96155.59
2023-03-23T23:06:01.385Z,96145.28
2023-03-23T23:08:30.016Z,96157.84
2023-03-23T23:10:59.458Z,96153.81
2023-03-23T23:13:27.137Z,96141.03
2023-03-23T23:15:56.447Z,96145.53
2023-03-23T23:18:24.899Z,96145.75
2023-03-23T23:20:55.394Z,96148.75
2023-03-23T23:23:23.701Z,96145.53
2023-03-23T23:25:50.936Z,96150.59
2023-03-23T23:28:18.224Z,96146.28
2023-03-23T23:30:45.518Z,96143.31
2023-03-23T23:33:12.294Z,96133.22
2023-03-23T23:35:39.763Z,96136.31
2023-03-23T23:38:07.853Z,96137.53
2023-03-23T23:40:35.331Z,96136.94
2023-03-23T23:43:03.405Z,96125.81
2023-03-23T23:45:30.076Z,96128.88
2023-03-23T23:47:56.719Z,96133.31
2023-03-23T23:50:23.418Z,96129.84
2023-03-23T23:52:50.686Z,96124.78
2023-03-23T23:55:17.244Z,96124.19
2023-03-23T23:57:45.370Z,96123.19
